sensor_id;sensor_type;location;lat;lon;timestamp;P1;durP1;ratioP1;P2;durP2;ratioP2
9884;SDS011;4981;50.966;4.842;2023-04-01T00:01:58;15.97;;;2.63;;
9884;SDS011;4981;50.966;4.842;2023-04-01T00:04:25;14.73;;;3.17;;
9884;SDS011;4981;50.966;4.842;2023-04-01T00:06:53;12.17;;;2.70;;
9884;SDS011;4981;50.966;4.842;2023-04-01T00:09:20;7.63;;;2.90;;
9884;SDS011;4981;50.966;4.842;2023-04-01T00:11:48;10.13;;;2.20;;
9884;SDS011;4981;50.966;4.842;2023-04-01T00:14:15;7.67;;;2.30;;
9884;SDS011;4981;50.966;4.842;2023-04-01T00:16:43;7.53;;;2.40;;
9884;SDS011;4981;50.966;4.842;2023-04-01T00:19:12;9.47;;;2.60;;
9884;SDS011;4981;50.966;4.842;2023-04-01T00:21:40;8.83;;;2.73;;
9884;SDS011;4981;50.966;4.842;2023-04-01T00:24:07;6.47;;;1.90;;
9884;SDS011;4981;50.966;4.842;2023-04-01T00:26:35;12.17;;;2.87;;
9884;SDS011;4981;50.966;4.842;2023-04-01T00:29:02;5.33;;;2.50;;
9884;SDS011;4981;50.966;4.842;2023-04-01T00:31:31;10.13;;;2.93;;
9884;SDS011;4981;50.966;4.842;2023-04-01T00:33:58;11.17;;;2.97;;
9884;SDS011;4981;50.966;4.842;2023-04-01T00:36:27;10.83;;;2.47;;
9884;SDS011;4981;50.966;4.842;2023-04-01T00:38:55;8.60;;;2.03;;
9884;SDS011;4981;50.966;4.842;2023-04-01T00:41:23;8.30;;;2.10;;
9884;SDS011;4981;50.966;4.842;2023-04-01T00:43:51;10.77;;;2.23;;
9884;SDS011;4981;50.966;4.842;2023-04-01T00:46:19;9.80;;;2.10;;
9884;SDS011;4981;50.966;4.842;2023-04-01T00:48:48;5.53;;;2.03;;
9884;SDS011;4981;50.966;4.842;2023-04-01T00:51:17;9.00;;;1.37;;
9884;SDS011;4981;50.966;4.842;2023-04-01T00:53:48;6.30;;;1.70;;
9884;SDS011;4981;50.966;4.842;2023-04-01T00:56:17;8.37;;;1.90;;
9884;SDS011;4981;50.966;4.842;2023-04-01T00:58:48;7.47;;;1.53;;
9884;SDS011;4981;50.966;4.842;2023-04-01T01:01:17;8.13;;;1.90;;
9884;SDS011;4981;50.966;4.842;2023-04-01T01:03:46;8.23;;;2.27;;
9884;SDS011;4981;50.966;4.842;2023-04-01T01:06:17;5.23;;;1.90;;
9884;SDS011;4981;50.966;4.842;2023-04-01T01:08:56;6.63;;;1.50;;
9884;SDS011;4981;50.966;4.842;2023-04-01T01:11:33;9.03;;;1.53;;
9884;SDS011;4981;50.966;4.842;2023-04-01T01:14:04;8.30;;;2.03;;
9884;SDS011;4981;50.966;4.842;2023-04-01T01:16:36;5.90;;;1.70;;
9884;SDS011;4981;50.966;4.842;2023-04-01T01:19:08;6.27;;;1.50;;
9884;SDS011;4981;50.966;4.842;2023-04-01T01:21:54;5.33;;;1.60;;
9884;SDS011;4981;50.966;4.842;2023-04-01T01:24:29;6.07;;;2.10;;
9884;SDS011;4981;50.966;4.842;2023-04-01T01:27:04;4.43;;;1.53;;
9884;SDS011;4981;50.966;4.842;2023-04-01T01:29:42;7.10;;;1.63;;
9884;SDS011;4981;50.966;4.842;2023-04-01T01:32:14;6.53;;;1.47;;
9884;SDS011;4981;50.966;4.842;2023-04-01T01:34:46;5.53;;;1.93;;
9884;SDS011;4981;50.966;4.842;2023-04-01T01:37:19;3.97;;;1.63;;
9884;SDS011;4981;50.966;4.842;2023-04-01T01:39:50;7.80;;;2.10;;
9884;SDS011;4981;50.966;4.842;2023-04-01T01:42:18;5.43;;;1.67;;
9884;SDS011;4981;50.966;4.842;2023-04-01T01:44:48;8.73;;;2.20;;
9884;SDS011;4981;50.966;4.842;2023-04-01T01:47:16;6.43;;;2.33;;
9884;SDS011;4981;50.966;4.842;2023-04-01T01:49:45;6.57;;;2.50;;
9884;SDS011;4981;50.966;4.842;2023-04-01T01:52:13;6.23;;;2.00;;
9884;SDS011;4981;50.966;4.842;2023-04-01T01:54:48;8.50;;;2.10;;
9884;SDS011;4981;50.966;4.842;2023-04-01T01:57:15;6.00;;;1.83;;
9884;SDS011;4981;50.966;4.842;2023-04-01T01:59:44;6.23;;;1.90;;
9884;SDS011;4981;50.966;4.842;2023-04-01T02:02:13;9.17;;;1.93;;
9884;SDS011;4981;50.966;4.842;2023-04-01T02:04:43;5.83;;;2.20;;
9884;SDS011;4981;50.966;4.842;2023-04-01T02:07:12;7.40;;;2.10;;
9884;SDS011;4981;50.966;4.842;2023-04-01T02:09:41;5.63;;;2.03;;
9884;SDS011;4981;50.966;4.842;2023-04-01T02:12:12;5.13;;;1.80;;
9884;SDS011;4981;50.966;4.842;2023-04-01T02:14:43;4.57;;;1.80;;
9884;SDS011;4981;50.966;4.842;2023-04-01T02:17:12;6.60;;;2.00;;
9884;SDS011;4981;50.966;4.842;2023-04-01T02:19:44;6.03;;;2.10;;
9884;SDS011;4981;50.966;4.842;2023-04-01T02:22:14;5.47;;;2.13;;
9884;SDS011;4981;50.966;4.842;2023-04-01T02:24:43;5.93;;;2.10;;
9884;SDS011;4981;50.966;4.842;2023-04-01T02:27:13;3.50;;;2.00;;
9884;SDS011;4981;50.966;4.842;2023-04-01T02:29:41;5.60;;;2.87;;
9884;SDS011;4981;50.966;4.842;2023-04-01T02:32:09;9.83;;;3.50;;
9884;SDS011;4981;50.966;4.842;2023-04-01T02:34:37;4.33;;;2.50;;
9884;SDS011;4981;50.966;4.842;2023-04-01T02:37:05;4.83;;;3.17;;
9884;SDS011;4981;50.966;4.842;2023-04-01T02:39:32;4.70;;;2.73;;
9884;SDS011;4981;50.966;4.842;2023-04-01T02:42:00;7.07;;;3.50;;
9884;SDS011;4981;50.966;4.842;2023-04-01T02:44:29;6.17;;;3.20;;
9884;SDS011;4981;50.966;4.842;2023-04-01T02:46:57;6.57;;;3.13;;
9884;SDS011;4981;50.966;4.842;2023-04-01T02:49:25;5.67;;;3.10;;
9884;SDS011;4981;50.966;4.842;2023-04-01T02:51:52;5.90;;;3.10;;
9884;SDS011;4981;50.966;4.842;2023-04-01T02:54:20;6.10;;;3.03;;
9884;SDS011;4981;50.966;4.842;2023-04-01T02:56:48;9.73;;;3.70;;
9884;SDS011;4981;50.966;4.842;2023-04-01T02:59:15;9.30;;;3.03;;
9884;SDS011;4981;50.966;4.842;2023-04-01T03:01:44;7.67;;;3.10;;
9884;SDS011;4981;50.966;4.842;2023-04-01T03:04:12;7.37;;;3.10;;
9884;SDS011;4981;50.966;4.842;2023-04-01T03:06:40;9.33;;;3.40;;
9884;SDS011;4981;50.966;4.842;2023-04-01T03:09:07;7.30;;;2.47;;
9884;SDS011;4981;50.966;4.842;2023-04-01T03:11:35;7.77;;;2.70;;
9884;SDS011;4981;50.966;4.842;2023-04-01T03:14:03;6.47;;;3.20;;
9884;SDS011;4981;50.966;4.842;2023-04-01T03:16:32;8.97;;;3.03;;
9884;SDS011;4981;50.966;4.842;2023-04-01T03:19:01;8.03;;;3.00;;
9884;SDS011;4981;50.966;4.842;2023-04-01T03:21:28;8.63;;;3.03;;
9884;SDS011;4981;50.966;4.842;2023-04-01T03:23:56;7.27;;;2.60;;
9884;SDS011;4981;50.966;4.842;2023-04-01T03:26:24;8.83;;;2.73;;
9884;SDS011;4981;50.966;4.842;2023-04-01T03:28:53;7.40;;;2.50;;
9884;SDS011;4981;50.966;4.842;2023-04-01T03:31:21;5.83;;;2.60;;
9884;SDS011;4981;50.966;4.842;2023-04-01T03:33:49;6.97;;;2.87;;
9884;SDS011;4981;50.966;4.842;2023-04-01T03:36:18;5.60;;;2.20;;
9884;SDS011;4981;50.966;4.842;2023-04-01T03:38:46;13.20;;;2.47;;
9884;SDS011;4981;50.966;4.842;2023-04-01T03:41:14;9.90;;;2.87;;
9884;SDS011;4981;50.966;4.842;2023-04-01T03:43:42;8.03;;;2.93;;
9884;SDS011;4981;50.966;4.842;2023-04-01T03:46:10;17.23;;;2.90;;
9884;SDS011;4981;50.966;4.842;2023-04-01T03:48:38;11.13;;;2.47;;
9884;SDS011;4981;50.966;4.842;2023-04-01T03:51:06;5.23;;;2.67;;
9884;SDS011;4981;50.966;4.842;2023-04-01T03:53:35;7.63;;;3.03;;
9884;SDS011;4981;50.966;4.842;2023-04-01T03:56:03;4.77;;;2.67;;
9884;SDS011;4981;50.966;4.842;2023-04-01T03:58:31;9.87;;;3.20;;
9884;SDS011;4981;50.966;4.842;2023-04-01T04:00:59;10.47;;;2.77;;
9884;SDS011;4981;50.966;4.842;2023-04-01T04:03:26;9.47;;;2.87;;
9884;SDS011;4981;50.966;4.842;2023-04-01T04:05:54;6.77;;;3.13;;
9884;SDS011;4981;50.966;4.842;2023-04-01T04:08:22;6.40;;;2.67;;
9884;SDS011;4981;50.966;4.842;2023-04-01T04:10:55;10.47;;;2.87;;
9884;SDS011;4981;50.966;4.842;2023-04-01T04:13:23;7.90;;;3.60;;
9884;SDS011;4981;50.966;4.842;2023-04-01T04:15:51;9.53;;;4.00;;
9884;SDS011;4981;50.966;4.842;2023-04-01T04:18:18;13.67;;;4.80;;
9884;SDS011;4981;50.966;4.842;2023-04-01T04:20:46;11.07;;;5.10;;
9884;SDS011;4981;50.966;4.842;2023-04-01T04:23:16;14.43;;;4.90;;
9884;SDS011;4981;50.966;4.842;2023-04-01T04:25:52;11.97;;;4.30;;
9884;SDS011;4981;50.966;4.842;2023-04-01T04:28:21;14.63;;;4.60;;
9884;SDS011;4981;50.966;4.842;2023-04-01T04:30:49;14.27;;;4.77;;
9884;SDS011;4981;50.966;4.842;2023-04-01T04:33:17;17.07;;;5.10;;
9884;SDS011;4981;50.966;4.842;2023-04-01T04:35:44;16.23;;;5.73;;
9884;SDS011;4981;50.966;4.842;2023-04-01T04:38:12;19.20;;;5.57;;
9884;SDS011;4981;50.966;4.842;2023-04-01T04:40:40;17.23;;;5.50;;
9884;SDS011;4981;50.966;4.842;2023-04-01T04:43:09;13.13;;;5.07;;
9884;SDS011;4981;50.966;4.842;2023-04-01T04:45:38;13.17;;;5.23;;
9884;SDS011;4981;50.966;4.842;2023-04-01T04:48:06;14.67;;;5.23;;
9884;SDS011;4981;50.966;4.842;2023-04-01T04:50:35;18.70;;;6.40;;
9884;SDS011;4981;50.966;4.842;2023-04-01T04:53:02;17.63;;;6.07;;
9884;SDS011;4981;50.966;4.842;2023-04-01T04:55:30;18.77;;;5.50;;
9884;SDS011;4981;50.966;4.842;2023-04-01T04:57:58;16.13;;;5.80;;
9884;SDS011;4981;50.966;4.842;2023-04-01T05:00:25;15.90;;;6.40;;
9884;SDS011;4981;50.966;4.842;2023-04-01T05:02:54;14.77;;;6.07;;
9884;SDS011;4981;50.966;4.842;2023-04-01T05:05:22;11.40;;;5.70;;
9884;SDS011;4981;50.966;4.842;2023-04-01T05:07:49;15.27;;;6.97;;
9884;SDS011;4981;50.966;4.842;2023-04-01T05:10:17;12.73;;;6.53;;
9884;SDS011;4981;50.966;4.842;2023-04-01T05:12:45;13.90;;;5.90;;
9884;SDS011;4981;50.966;4.842;2023-04-01T05:15:13;11.63;;;5.57;;
9884;SDS011;4981;50.966;4.842;2023-04-01T05:17:40;13.03;;;6.87;;
9884;SDS011;4981;50.966;4.842;2023-04-01T05:20:11;14.83;;;5.60;;
9884;SDS011;4981;50.966;4.842;2023-04-01T05:22:39;13.77;;;5.80;;
9884;SDS011;4981;50.966;4.842;2023-04-01T05:25:07;9.20;;;5.57;;
9884;SDS011;4981;50.966;4.842;2023-04-01T05:27:34;7.93;;;5.13;;
9884;SDS011;4981;50.966;4.842;2023-04-01T05:30:02;9.53;;;4.80;;
9884;SDS011;4981;50.966;4.842;2023-04-01T05:32:30;7.30;;;5.00;;
9884;SDS011;4981;50.966;4.842;2023-04-01T05:34:58;8.20;;;5.00;;
9884;SDS011;4981;50.966;4.842;2023-04-01T05:37:27;7.97;;;4.20;;
9884;SDS011;4981;50.966;4.842;2023-04-01T05:39:54;8.60;;;3.67;;
9884;SDS011;4981;50.966;4.842;2023-04-01T05:42:23;10.63;;;3.97;;
9884;SDS011;4981;50.966;4.842;2023-04-01T05:44:51;6.63;;;5.33;;
9884;SDS011;4981;50.966;4.842;2023-04-01T05:47:18;7.57;;;3.80;;
9884;SDS011;4981;50.966;4.842;2023-04-01T05:49:46;8.10;;;5.00;;
9884;SDS011;4981;50.966;4.842;2023-04-01T05:52:14;7.10;;;4.57;;
9884;SDS011;4981;50.966;4.842;2023-04-01T05:54:43;9.07;;;4.33;;
9884;SDS011;4981;50.966;4.842;2023-04-01T05:57:10;5.77;;;4.37;;
9884;SDS011;4981;50.966;4.842;2023-04-01T05:59:38;6.47;;;4.13;;
9884;SDS011;4981;50.966;4.842;2023-04-01T06:02:06;6.73;;;3.80;;
9884;SDS011;4981;50.966;4.842;2023-04-01T06:04:34;5.53;;;3.53;;
9884;SDS011;4981;50.966;4.842;2023-04-01T06:07:05;4.43;;;2.63;;
9884;SDS011;4981;50.966;4.842;2023-04-01T06:09:33;4.93;;;3.27;;
9884;SDS011;4981;50.966;4.842;2023-04-01T06:12:08;5.50;;;3.23;;
9884;SDS011;4981;50.966;4.842;2023-04-01T06:14:41;3.20;;;2.83;;
9884;SDS011;4981;50.966;4.842;2023-04-01T06:17:18;4.80;;;2.80;;
9884;SDS011;4981;50.966;4.842;2023-04-01T06:19:50;4.70;;;3.47;;
9884;SDS011;4981;50.966;4.842;2023-04-01T06:22:27;5.43;;;3.63;;
9884;SDS011;4981;50.966;4.842;2023-04-01T06:25:04;3.77;;;2.80;;
9884;SDS011;4981;50.966;4.842;2023-04-01T06:27:40;2.93;;;2.07;;
9884;SDS011;4981;50.966;4.842;2023-04-01T06:30:17;2.30;;;2.10;;
9884;SDS011;4981;50.966;4.842;2023-04-01T06:32:56;2.47;;;2.07;;
9884;SDS011;4981;50.966;4.842;2023-04-01T06:35:29;4.47;;;2.73;;
9884;SDS011;4981;50.966;4.842;2023-04-01T06:38:02;3.57;;;2.40;;
9884;SDS011;4981;50.966;4.842;2023-04-01T06:40:45;4.80;;;2.37;;
9884;SDS011;4981;50.966;4.842;2023-04-01T06:43:18;3.60;;;1.90;;
9884;SDS011;4981;50.966;4.842;2023-04-01T06:45:49;2.77;;;2.53;;
9884;SDS011;4981;50.966;4.842;2023-04-01T06:48:27;3.00;;;2.10;;
9884;SDS011;4981;50.966;4.842;2023-04-01T06:50:58;3.27;;;1.87;;
9884;SDS011;4981;50.966;4.842;2023-04-01T06:53:31;3.17;;;1.77;;
9884;SDS011;4981;50.966;4.842;2023-04-01T06:56:04;3.23;;;1.47;;
9884;SDS011;4981;50.966;4.842;2023-04-01T06:58:36;2.50;;;1.43;;
9884;SDS011;4981;50.966;4.842;2023-04-01T07:01:06;3.33;;;1.40;;
9884;SDS011;4981;50.966;4.842;2023-04-01T07:03:36;2.37;;;1.30;;
9884;SDS011;4981;50.966;4.842;2023-04-01T07:06:08;2.93;;;1.80;;
9884;SDS011;4981;50.966;4.842;2023-04-01T07:08:37;3.50;;;2.10;;
9884;SDS011;4981;50.966;4.842;2023-04-01T07:11:08;4.13;;;2.33;;
9884;SDS011;4981;50.966;4.842;2023-04-01T07:13:41;4.97;;;1.70;;
9884;SDS011;4981;50.966;4.842;2023-04-01T07:16:11;3.00;;;1.40;;
9884;SDS011;4981;50.966;4.842;2023-04-01T07:18:41;4.23;;;2.53;;
9884;SDS011;4981;50.966;4.842;2023-04-01T07:21:19;1.97;;;1.63;;
9884;SDS011;4981;50.966;4.842;2023-04-01T07:23:48;3.10;;;1.30;;
9884;SDS011;4981;50.966;4.842;2023-04-01T07:26:18;2.57;;;1.90;;
9884;SDS011;4981;50.966;4.842;2023-04-01T07:28:48;3.57;;;1.30;;
9884;SDS011;4981;50.966;4.842;2023-04-01T07:31:25;4.13;;;1.30;;
9884;SDS011;4981;50.966;4.842;2023-04-01T07:33:59;8.60;;;0.90;;
9884;SDS011;4981;50.966;4.842;2023-04-01T07:36:31;3.47;;;1.10;;
9884;SDS011;4981;50.966;4.842;2023-04-01T07:39:03;2.07;;;1.00;;
9884;SDS011;4981;50.966;4.842;2023-04-01T07:41:36;2.27;;;1.13;;
9884;SDS011;4981;50.966;4.842;2023-04-01T07:44:10;1.03;;;0.90;;
9884;SDS011;4981;50.966;4.842;2023-04-01T07:46:44;1.37;;;0.83;;
9884;SDS011;4981;50.966;4.842;2023-04-01T07:49:15;2.10;;;1.00;;
9884;SDS011;4981;50.966;4.842;2023-04-01T07:51:46;2.70;;;0.90;;
9884;SDS011;4981;50.966;4.842;2023-04-01T07:54:17;1.27;;;1.00;;
9884;SDS011;4981;50.966;4.842;2023-04-01T07:56:47;1.33;;;1.03;;
9884;SDS011;4981;50.966;4.842;2023-04-01T07:59:21;1.87;;;1.30;;
9884;SDS011;4981;50.966;4.842;2023-04-01T08:01:52;2.23;;;1.37;;
9884;SDS011;4981;50.966;4.842;2023-04-01T08:04:27;3.70;;;1.40;;
9884;SDS011;4981;50.966;4.842;2023-04-01T08:07:00;2.33;;;1.70;;
9884;SDS011;4981;50.966;4.842;2023-04-01T08:09:34;4.27;;;1.57;;
9884;SDS011;4981;50.966;4.842;2023-04-01T08:12:10;1.93;;;1.70;;
9884;SDS011;4981;50.966;4.842;2023-04-01T08:14:43;1.93;;;1.30;;
9884;SDS011;4981;50.966;4.842;2023-04-01T08:17:16;1.43;;;1.33;;
9884;SDS011;4981;50.966;4.842;2023-04-01T08:19:49;3.47;;;1.70;;
9884;SDS011;4981;50.966;4.842;2023-04-01T08:22:22;5.10;;;1.70;;
9884;SDS011;4981;50.966;4.842;2023-04-01T08:24:52;2.10;;;1.90;;
9884;SDS011;4981;50.966;4.842;2023-04-01T08:27:23;1.67;;;1.50;;
9884;SDS011;4981;50.966;4.842;2023-04-01T08:29:57;3.43;;;1.53;;
9884;SDS011;4981;50.966;4.842;2023-04-01T08:32:28;1.70;;;1.60;;
9884;SDS011;4981;50.966;4.842;2023-04-01T08:35:02;2.90;;;1.67;;
9884;SDS011;4981;50.966;4.842;2023-04-01T08:37:35;2.43;;;1.90;;
9884;SDS011;4981;50.966;4.842;2023-04-01T08:40:11;2.10;;;1.90;;
9884;SDS011;4981;50.966;4.842;2023-04-01T08:42:46;2.47;;;1.97;;
9884;SDS011;4981;50.966;4.842;2023-04-01T08:45:23;2.30;;;1.87;;
9884;SDS011;4981;50.966;4.842;2023-04-01T08:48:02;4.00;;;1.63;;
9884;SDS011;4981;50.966;4.842;2023-04-01T08:50:53;1.73;;;1.60;;
9884;SDS011;4981;50.966;4.842;2023-04-01T08:53:27;1.83;;;1.50;;
9884;SDS011;4981;50.966;4.842;2023-04-01T08:56:03;1.60;;;1.43;;
9884;SDS011;4981;50.966;4.842;2023-04-01T08:58:54;1.13;;;1.03;;
9884;SDS011;4981;50.966;4.842;2023-04-01T09:01:31;1.53;;;1.40;;
9884;SDS011;4981;50.966;4.842;2023-04-01T09:04:05;1.90;;;0.90;;
9884;SDS011;4981;50.966;4.842;2023-04-01T09:06:37;2.07;;;1.10;;
9884;SDS011;4981;50.966;4.842;2023-04-01T09:11:58;2.53;;;0.90;;
9884;SDS011;4981;50.966;4.842;2023-04-01T09:14:41;3.13;;;1.03;;
9884;SDS011;4981;50.966;4.842;2023-04-01T09:17:20;1.33;;;1.20;;
9884;SDS011;4981;50.966;4.842;2023-04-01T09:20:00;1.20;;;1.10;;
9884;SDS011;4981;50.966;4.842;2023-04-01T09:22:35;0.90;;;0.90;;
9884;SDS011;4981;50.966;4.842;2023-04-01T09:25:22;0.90;;;0.90;;
9884;SDS011;4981;50.966;4.842;2023-04-01T09:27:54;2.20;;;1.20;;
9884;SDS011;4981;50.966;4.842;2023-04-01T09:30:34;1.37;;;1.10;;
9884;SDS011;4981;50.966;4.842;2023-04-01T09:33:12;2.37;;;1.30;;
9884;SDS011;4981;50.966;4.842;2023-04-01T09:35:45;1.40;;;1.27;;
9884;SDS011;4981;50.966;4.842;2023-04-01T09:38:20;3.47;;;2.93;;
9884;SDS011;4981;50.966;4.842;2023-04-01T09:40:50;6.47;;;4.90;;
9884;SDS011;4981;50.966;4.842;2023-04-01T09:43:22;1.70;;;1.60;;
9884;SDS011;4981;50.966;4.842;2023-04-01T09:48:39;4.60;;;2.00;;
9884;SDS011;4981;50.966;4.842;2023-04-01T09:51:12;2.50;;;2.07;;
9884;SDS011;4981;50.966;4.842;2023-04-01T09:53:48;2.87;;;2.30;;
9884;SDS011;4981;50.966;4.842;2023-04-01T09:59:12;1.63;;;1.43;;
9884;SDS011;4981;50.966;4.842;2023-04-01T10:01:45;1.77;;;1.67;;
9884;SDS011;4981;50.966;4.842;2023-04-01T10:07:21;2.70;;;1.90;;
9884;SDS011;4981;50.966;4.842;2023-04-01T10:15:40;2.30;;;2.10;;
9884;SDS011;4981;50.966;4.842;2023-04-01T10:24:12;3.40;;;3.10;;
9884;SDS011;4981;50.966;4.842;2023-04-01T10:26:58;2.70;;;2.50;;
9884;SDS011;4981;50.966;4.842;2023-04-01T10:29:44;3.53;;;3.10;;
9884;SDS011;4981;50.966;4.842;2023-04-01T10:32:20;3.37;;;3.07;;
9884;SDS011;4981;50.966;4.842;2023-04-01T10:35:15;4.03;;;3.63;;
9884;SDS011;4981;50.966;4.842;2023-04-01T10:37:56;5.60;;;5.10;;
9884;SDS011;4981;50.966;4.842;2023-04-01T10:40:38;6.30;;;5.00;;
9884;SDS011;4981;50.966;4.842;2023-04-01T10:43:14;7.03;;;6.13;;
9884;SDS011;4981;50.966;4.842;2023-04-01T10:51:14;11.33;;;9.73;;
9884;SDS011;4981;50.966;4.842;2023-04-01T10:53:46;8.87;;;6.63;;
9884;SDS011;4981;50.966;4.842;2023-04-01T10:59:08;9.70;;;7.17;;
9884;SDS011;4981;50.966;4.842;2023-04-01T11:07:43;7.53;;;6.63;;
9884;SDS011;4981;50.966;4.842;2023-04-01T11:10:25;7.63;;;6.93;;
9884;SDS011;4981;50.966;4.842;2023-04-01T11:21:51;7.10;;;6.40;;
9884;SDS011;4981;50.966;4.842;2023-04-01T11:24:42;6.00;;;5.07;;
9884;SDS011;4981;50.966;4.842;2023-04-01T11:27:17;4.90;;;3.50;;
9884;SDS011;4981;50.966;4.842;2023-04-01T11:29:52;2.87;;;2.43;;
9884;SDS011;4981;50.966;4.842;2023-04-01T11:32:28;6.13;;;2.53;;
9884;SDS011;4981;50.966;4.842;2023-04-01T11:35:02;4.73;;;2.40;;
9884;SDS011;4981;50.966;4.842;2023-04-01T11:37:38;4.83;;;2.50;;
9884;SDS011;4981;50.966;4.842;2023-04-01T11:40:11;3.60;;;2.23;;
9884;SDS011;4981;50.966;4.842;2023-04-01T11:42:40;4.83;;;2.20;;
9884;SDS011;4981;50.966;4.842;2023-04-01T11:45:15;3.03;;;2.27;;
9884;SDS011;4981;50.966;4.842;2023-04-01T11:47:56;3.60;;;2.40;;
9884;SDS011;4981;50.966;4.842;2023-04-01T11:50:29;3.63;;;2.67;;
9884;SDS011;4981;50.966;4.842;2023-04-01T11:53:09;4.07;;;3.33;;
9884;SDS011;4981;50.966;4.842;2023-04-01T11:55:44;5.90;;;3.77;;
9884;SDS011;4981;50.966;4.842;2023-04-01T11:58:19;3.23;;;2.90;;
9884;SDS011;4981;50.966;4.842;2023-04-01T12:00:52;5.07;;;3.20;;
9884;SDS011;4981;50.966;4.842;2023-04-01T12:03:38;4.20;;;3.70;;
9884;SDS011;4981;50.966;4.842;2023-04-01T12:06:16;6.13;;;4.30;;
9884;SDS011;4981;50.966;4.842;2023-04-01T12:08:49;6.50;;;4.40;;
9884;SDS011;4981;50.966;4.842;2023-04-01T12:11:21;5.03;;;3.90;;
9884;SDS011;4981;50.966;4.842;2023-04-01T12:13:52;4.67;;;4.20;;
9884;SDS011;4981;50.966;4.842;2023-04-01T12:16:25;4.37;;;3.83;;
9884;SDS011;4981;50.966;4.842;2023-04-01T12:18:58;5.70;;;3.80;;
9884;SDS011;4981;50.966;4.842;2023-04-01T12:21:27;4.17;;;2.93;;
9884;SDS011;4981;50.966;4.842;2023-04-01T12:24:09;4.07;;;3.67;;
9884;SDS011;4981;50.966;4.842;2023-04-01T12:26:42;4.10;;;3.60;;
9884;SDS011;4981;50.966;4.842;2023-04-01T12:29:19;4.13;;;3.73;;
9884;SDS011;4981;50.966;4.842;2023-04-01T12:31:51;5.87;;;4.43;;
9884;SDS011;4981;50.966;4.842;2023-04-01T12:34:25;5.47;;;4.73;;
9884;SDS011;4981;50.966;4.842;2023-04-01T12:36:59;6.27;;;5.20;;
9884;SDS011;4981;50.966;4.842;2023-04-01T12:39:44;6.03;;;5.30;;
9884;SDS011;4981;50.966;4.842;2023-04-01T12:42:16;6.13;;;5.53;;
9884;SDS011;4981;50.966;4.842;2023-04-01T12:44:49;6.93;;;5.40;;
9884;SDS011;4981;50.966;4.842;2023-04-01T12:47:26;7.53;;;6.83;;
9884;SDS011;4981;50.966;4.842;2023-04-01T12:52:49;8.73;;;6.77;;
9884;SDS011;4981;50.966;4.842;2023-04-01T12:55:37;7.67;;;5.87;;
9884;SDS011;4981;50.966;4.842;2023-04-01T13:00:58;6.33;;;5.63;;
9884;SDS011;4981;50.966;4.842;2023-04-01T13:06:22;6.27;;;4.60;;
9884;SDS011;4981;50.966;4.842;2023-04-01T13:08:52;6.77;;;5.00;;
9884;SDS011;4981;50.966;4.842;2023-04-01T13:11:24;6.60;;;4.77;;
9884;SDS011;4981;50.966;4.842;2023-04-01T13:14:05;6.53;;;5.00;;
9884;SDS011;4981;50.966;4.842;2023-04-01T13:16:36;3.87;;;3.47;;
9884;SDS011;4981;50.966;4.842;2023-04-01T13:19:07;3.47;;;3.17;;
9884;SDS011;4981;50.966;4.842;2023-04-01T13:21:41;3.47;;;3.17;;
9884;SDS011;4981;50.966;4.842;2023-04-01T13:24:15;5.07;;;3.60;;
9884;SDS011;4981;50.966;4.842;2023-04-01T13:26:50;2.70;;;2.50;;
9884;SDS011;4981;50.966;4.842;2023-04-01T13:29:21;4.43;;;3.47;;
9884;SDS011;4981;50.966;4.842;2023-04-01T13:31:54;4.10;;;2.70;;
9884;SDS011;4981;50.966;4.842;2023-04-01T13:34:26;3.13;;;2.60;;
9884;SDS011;4981;50.966;4.842;2023-04-01T13:36:59;4.07;;;3.20;;
9884;SDS011;4981;50.966;4.842;2023-04-01T13:39:34;2.80;;;2.60;;
9884;SDS011;4981;50.966;4.842;2023-04-01T13:42:11;2.50;;;2.30;;
9884;SDS011;4981;50.966;4.842;2023-04-01T13:44:42;3.33;;;2.50;;
9884;SDS011;4981;50.966;4.842;2023-04-01T13:50:00;2.53;;;2.10;;
9884;SDS011;4981;50.966;4.842;2023-04-01T13:55:23;3.50;;;2.10;;
9884;SDS011;4981;50.966;4.842;2023-04-01T14:00:47;2.57;;;2.20;;
9884;SDS011;4981;50.966;4.842;2023-04-01T14:03:22;7.00;;;2.20;;
9884;SDS011;4981;50.966;4.842;2023-04-01T14:05:56;2.17;;;1.50;;
9884;SDS011;4981;50.966;4.842;2023-04-01T14:08:33;1.97;;;1.80;;
9884;SDS011;4981;50.966;4.842;2023-04-01T14:11:10;2.23;;;1.30;;
9884;SDS011;4981;50.966;4.842;2023-04-01T14:13:41;4.30;;;1.50;;
9884;SDS011;4981;50.966;4.842;2023-04-01T14:16:19;1.63;;;1.53;;
9884;SDS011;4981;50.966;4.842;2023-04-01T14:18:56;1.77;;;1.20;;
9884;SDS011;4981;50.966;4.842;2023-04-01T14:21:29;1.57;;;1.47;;
9884;SDS011;4981;50.966;4.842;2023-04-01T14:29:36;2.23;;;2.03;;
9884;SDS011;4981;50.966;4.842;2023-04-01T14:32:09;1.70;;;1.60;;
9884;SDS011;4981;50.966;4.842;2023-04-01T14:34:49;2.20;;;1.50;;
9884;SDS011;4981;50.966;4.842;2023-04-01T14:37:27;2.53;;;2.00;;
9884;SDS011;4981;50.966;4.842;2023-04-01T14:40:16;2.43;;;2.23;;
9884;SDS011;4981;50.966;4.842;2023-04-01T14:42:59;2.60;;;2.40;;
9884;SDS011;4981;50.966;4.842;2023-04-01T14:48:21;4.13;;;3.73;;
9884;SDS011;4981;50.966;4.842;2023-04-01T14:50:50;7.57;;;4.17;;
9884;SDS011;4981;50.966;4.842;2023-04-01T14:53:24;4.63;;;4.03;;
9884;SDS011;4981;50.966;4.842;2023-04-01T14:55:53;3.90;;;3.50;;
9884;SDS011;4981;50.966;4.842;2023-04-01T14:58:22;3.20;;;2.90;;
9884;SDS011;4981;50.966;4.842;2023-04-01T15:00:56;4.07;;;3.70;;
9884;SDS011;4981;50.966;4.842;2023-04-01T15:03:28;4.40;;;2.60;;
9884;SDS011;4981;50.966;4.842;2023-04-01T15:06:01;4.00;;;3.00;;
9884;SDS011;4981;50.966;4.842;2023-04-01T15:08:36;2.70;;;2.50;;
9884;SDS011;4981;50.966;4.842;2023-04-01T15:11:14;2.47;;;2.27;;
9884;SDS011;4981;50.966;4.842;2023-04-01T15:16:34;5.00;;;3.27;;
9884;SDS011;4981;50.966;4.842;2023-04-01T15:19:11;4.77;;;3.50;;
9884;SDS011;4981;50.966;4.842;2023-04-01T15:21:43;1.93;;;1.40;;
9884;SDS011;4981;50.966;4.842;2023-04-01T15:24:14;2.27;;;1.63;;
9884;SDS011;4981;50.966;4.842;2023-04-01T15:29:42;2.53;;;2.27;;
9884;SDS011;4981;50.966;4.842;2023-04-01T15:32:14;2.03;;;1.77;;
9884;SDS011;4981;50.966;4.842;2023-04-01T15:34:45;2.20;;;2.00;;
9884;SDS011;4981;50.966;4.842;2023-04-01T15:37:17;3.83;;;2.10;;
9884;SDS011;4981;50.966;4.842;2023-04-01T15:39:50;3.70;;;1.53;;
9884;SDS011;4981;50.966;4.842;2023-04-01T15:42:23;3.43;;;1.63;;
9884;SDS011;4981;50.966;4.842;2023-04-01T15:44:56;2.33;;;1.60;;
9884;SDS011;4981;50.966;4.842;2023-04-01T15:47:31;1.20;;;1.10;;
9884;SDS011;4981;50.966;4.842;2023-04-01T15:50:04;1.10;;;1.00;;
9884;SDS011;4981;50.966;4.842;2023-04-01T15:52:36;1.60;;;1.20;;
9884;SDS011;4981;50.966;4.842;2023-04-01T15:55:17;1.40;;;1.27;;
9884;SDS011;4981;50.966;4.842;2023-04-01T15:57:50;2.00;;;1.40;;
9884;SDS011;4981;50.966;4.842;2023-04-01T16:00:22;2.57;;;1.57;;
9884;SDS011;4981;50.966;4.842;2023-04-01T16:02:52;2.47;;;2.00;;
9884;SDS011;4981;50.966;4.842;2023-04-01T16:05:33;2.83;;;2.63;;
9884;SDS011;4981;50.966;4.842;2023-04-01T16:08:07;7.03;;;3.53;;
9884;SDS011;4981;50.966;4.842;2023-04-01T16:10:49;4.67;;;3.97;;
9884;SDS011;4981;50.966;4.842;2023-04-01T16:13:23;5.50;;;5.00;;
9884;SDS011;4981;50.966;4.842;2023-04-01T16:15:53;5.90;;;5.30;;
9884;SDS011;4981;50.966;4.842;2023-04-01T16:18:28;6.70;;;6.10;;
9884;SDS011;4981;50.966;4.842;2023-04-01T16:21:02;7.10;;;6.10;;
9884;SDS011;4981;50.966;4.842;2023-04-01T16:23:35;7.07;;;6.33;;
9884;SDS011;4981;50.966;4.842;2023-04-01T16:26:05;8.17;;;6.13;;
9884;SDS011;4981;50.966;4.842;2023-04-01T16:28:36;11.77;;;6.17;;
9884;SDS011;4981;50.966;4.842;2023-04-01T16:31:06;8.70;;;6.97;;
9884;SDS011;4981;50.966;4.842;2023-04-01T16:33:38;7.73;;;6.30;;
9884;SDS011;4981;50.966;4.842;2023-04-01T16:36:10;10.23;;;7.00;;
9884;SDS011;4981;50.966;4.842;2023-04-01T16:38:40;8.43;;;6.60;;
9884;SDS011;4981;50.966;4.842;2023-04-01T16:41:11;7.00;;;5.97;;
9884;SDS011;4981;50.966;4.842;2023-04-01T16:43:42;7.40;;;6.50;;
9884;SDS011;4981;50.966;4.842;2023-04-01T16:46:19;6.00;;;4.87;;
9884;SDS011;4981;50.966;4.842;2023-04-01T16:48:54;5.53;;;4.80;;
9884;SDS011;4981;50.966;4.842;2023-04-01T16:51:26;6.70;;;4.60;;
9884;SDS011;4981;50.966;4.842;2023-04-01T16:54:01;6.03;;;4.53;;
9884;SDS011;4981;50.966;4.842;2023-04-01T16:56:36;7.27;;;5.10;;
9884;SDS011;4981;50.966;4.842;2023-04-01T16:59:07;5.50;;;4.20;;
9884;SDS011;4981;50.966;4.842;2023-04-01T17:01:38;5.73;;;4.63;;
9884;SDS011;4981;50.966;4.842;2023-04-01T17:04:07;7.83;;;5.27;;